Time;durP1;ratioP1;P1;durP2;ratioP2;P2;SDS_P1;SDS_P2;PMS_P1;PMS_P2;Temp;Humidity;BMP_temperature;BMP_pressure;BME280_temperature;BME280_humidity;BME280_pressure;Samples;Min_cycle;Max_cycle;Signal;HPM_P1;HPM_P2
2021/06/23 00:01:19;;;;;;;11.20;2.83;;;17.40;99.90;;;;;;1860388;75;21487;-77
2021/06/23 00:03:47;;;;;;;8.73;2.47;;;17.40;99.90;;;;;;1860515;76;21049;-79
2021/06/23 00:06:14;;;;;;;13.90;2.90;;;17.40;99.90;;;;;;1861215;75;21196;-79
2021/06/23 00:08:42;;;;;;;9.70;2.42;;;17.50;99.90;;;;;;1861671;76;21196;-78
2021/06/23 00:11:09;;;;;;;11.10;2.20;;;17.40;99.90;;;;;;1859752;75;21602;-76
2021/06/23 00:13:37;;;;;;;14.05;2.85;;;17.40;99.90;;;;;;1854904;76;21624;-78
2021/06/23 00:16:07;;;;;;;11.38;2.50;;;17.40;99.90;;;;;;1861374;75;21098;-77
2021/06/23 00:18:35;;;;;;;15.32;2.67;;;17.40;99.90;;;;;;1860706;76;21082;-78
2021/06/23 00:21:03;;;;;;;14.50;3.02;;;17.30;99.90;;;;;;1846848;75;21214;-78
2021/06/23 00:23:31;;;;;;;16.07;2.40;;;17.20;99.90;;;;;;1861229;75;21040;-78
2021/06/23 00:25:59;;;;;;;15.75;2.70;;;17.30;99.90;;;;;;1853233;75;21110;-78
2021/06/23 00:28:26;;;;;;;10.63;2.60;;;17.20;99.90;;;;;;1859636;75;21160;-78
2021/06/23 00:30:54;;;;;;;9.18;2.55;;;17.20;99.90;;;;;;1861042;76;21072;-77
2021/06/23 00:33:25;;;;;;;8.20;2.27;;;17.20;99.90;;;;;;1860252;76;21023;-77
2021/06/23 00:35:52;;;;;;;16.05;2.77;;;17.20;99.90;;;;;;1858419;75;21114;-77
2021/06/23 00:38:20;;;;;;;12.95;2.50;;;17.20;99.90;;;;;;1857487;76;21084;-78
2021/06/23 00:40:47;;;;;;;13.43;2.70;;;17.20;99.90;;;;;;1860075;75;21064;-78
2021/06/23 00:43:15;;;;;;;11.22;2.60;;;17.10;99.90;;;;;;1859954;75;21075;-79
2021/06/23 00:45:45;;;;;;;13.10;2.77;;;17.10;99.90;;;;;;1859566;75;21185;-77
2021/06/23 00:48:22;;;;;;;14.25;2.52;;;17.10;99.90;;;;;;1859689;76;21136;-76
2021/06/23 00:50:51;;;;;;;11.57;2.75;;;17.10;99.90;;;;;;1859130;75;21188;-76
2021/06/23 00:53:20;;;;;;;13.15;2.90;;;17.10;99.90;;;;;;1854050;75;21210;-76
2021/06/23 00:55:49;;;;;;;13.88;3.00;;;17.10;99.90;;;;;;1859267;75;21134;-77
2021/06/23 00:58:17;;;;;;;10.60;2.83;;;17.00;99.90;;;;;;1859542;75;21076;-77
2021/06/23 01:00:45;;;;;;;12.30;2.60;;;17.00;99.90;;;;;;1857960;75;21132;-78
2021/06/23 01:03:13;;;;;;;10.93;1.92;;;17.00;99.90;;;;;;1859804;75;21071;-78
2021/06/23 01:05:41;;;;;;;13.00;2.12;;;16.90;99.90;;;;;;1859437;75;21071;-78
2021/06/23 01:08:10;;;;;;;13.72;2.85;;;17.00;99.90;;;;;;1860964;75;21110;-78
2021/06/23 01:10:38;;;;;;;14.60;2.90;;;17.00;99.90;;;;;;1860459;75;21240;-77
2021/06/23 01:13:21;;;;;;;17.65;2.95;;;17.00;99.90;;;;;;1861776;77;21130;-77
2021/06/23 01:15:49;;;;;;;17.27;2.83;;;17.00;99.90;;;;;;1834922;75;21109;-76
2021/06/23 01:18:20;;;;;;;14.07;2.80;;;17.00;99.90;;;;;;1859878;75;21221;-77
2021/06/23 01:20:48;;;;;;;13.18;2.98;;;17.00;99.90;;;;;;1859426;75;21150;-77
2021/06/23 01:23:16;;;;;;;13.30;2.90;;;17.00;99.90;;;;;;1859027;75;21116;-76
2021/06/23 01:25:46;;;;;;;18.35;3.20;;;17.10;99.90;;;;;;1849013;75;21191;-76
2021/06/23 01:28:13;;;;;;;15.72;3.17;;;17.10;99.90;;;;;;1859605;75;21565;-77
2021/06/23 01:30:41;;;;;;;11.25;2.40;;;17.10;99.90;;;;;;1859678;75;21616;-77
2021/06/23 01:33:09;;;;;;;10.93;3.27;;;17.10;99.90;;;;;;1846715;75;21216;-75
2021/06/23 01:35:37;;;;;;;10.88;3.08;;;17.20;99.90;;;;;;1859273;75;21182;-77
2021/06/23 01:38:05;;;;;;;12.23;2.92;;;17.10;99.90;;;;;;1859591;76;21169;-76
2021/06/23 01:40:33;;;;;;;14.55;3.75;;;17.10;99.90;;;;;;1858100;75;21133;-74
2021/06/23 01:43:00;;;;;;;12.70;3.35;;;17.20;99.90;;;;;;1859215;77;21344;-77
2021/06/23 01:45:28;;;;;;;14.20;3.75;;;17.20;99.90;;;;;;1859769;75;21055;-76
2021/06/23 01:47:58;;;;;;;15.75;3.75;;;17.20;99.90;;;;;;1859580;77;21191;-76
2021/06/23 01:50:25;;;;;;;13.80;3.27;;;17.20;99.90;;;;;;1859701;76;21162;-77
2021/06/23 01:52:53;;;;;;;13.05;3.60;;;17.20;99.90;;;;;;1860184;75;21394;-76
2021/06/23 01:55:30;;;;;;;15.15;3.75;;;17.20;99.90;;;;;;1859078;75;21057;-76
2021/06/23 01:58:03;;;;;;;12.88;3.33;;;17.10;99.90;;;;;;1860861;76;21163;-75
2021/06/23 02:00:42;;;;;;;13.98;3.85;;;17.10;99.90;;;;;;1858054;75;21181;-76
2021/06/23 02:03:25;;;;;;;12.53;3.70;;;17.10;99.90;;;;;;1859589;75;21197;-76
2021/06/23 02:05:59;;;;;;;13.22;3.72;;;17.10;99.90;;;;;;1860022;75;21162;-77
2021/06/23 02:08:47;;;;;;;15.55;3.55;;;17.10;99.90;;;;;;1839367;77;21112;-76
2021/06/23 02:11:31;;;;;;;14.47;3.37;;;17.10;99.90;;;;;;1858262;76;21096;-77
2021/06/23 02:14:08;;;;;;;10.60;2.92;;;17.10;99.90;;;;;;1857226;75;21130;-75
2021/06/23 02:16:38;;;;;;;16.95;4.10;;;17.10;99.90;;;;;;1848768;77;21140;-75
2021/06/23 02:19:07;;;;;;;15.60;3.85;;;17.10;99.90;;;;;;1859187;75;21131;-78
2021/06/23 02:21:38;;;;;;;11.73;3.90;;;17.10;99.90;;;;;;1859314;75;21128;-76
2021/06/23 02:24:07;;;;;;;13.70;4.10;;;17.10;99.90;;;;;;1858937;75;21734;-76
2021/06/23 02:26:35;;;;;;;19.50;3.95;;;17.10;99.90;;;;;;1859747;75;21196;-77
2021/06/23 02:29:05;;;;;;;18.52;4.30;;;17.20;99.90;;;;;;1859866;75;21165;-77
2021/06/23 02:31:38;;;;;;;13.80;4.53;;;17.20;99.90;;;;;;1859644;75;21541;-77
2021/06/23 02:34:12;;;;;;;14.07;3.60;;;17.20;99.90;;;;;;1860829;75;21124;-76
2021/06/23 02:36:42;;;;;;;15.78;3.70;;;17.20;99.90;;;;;;1860633;75;21483;-77
2021/06/23 02:39:10;;;;;;;12.98;3.45;;;17.20;99.90;;;;;;1860660;75;21024;-76
2021/06/23 02:41:38;;;;;;;14.65;3.37;;;17.20;99.90;;;;;;1860750;76;21212;-77
2021/06/23 02:44:06;;;;;;;14.30;4.33;;;17.20;99.90;;;;;;1859117;75;21050;-76
2021/06/23 02:46:34;;;;;;;13.35;3.60;;;17.20;99.90;;;;;;1859550;76;21042;-77
2021/06/23 02:49:03;;;;;;;15.20;3.83;;;17.20;99.90;;;;;;1860637;75;21059;-75
2021/06/23 02:51:34;;;;;;;14.95;3.65;;;17.20;99.90;;;;;;1859184;76;21065;-77
2021/06/23 02:54:01;;;;;;;14.13;4.15;;;17.20;99.90;;;;;;1857296;75;21868;-76
2021/06/23 02:56:29;;;;;;;16.12;3.87;;;17.20;99.90;;;;;;1861279;77;21090;-76
2021/06/23 02:58:57;;;;;;;13.30;3.87;;;17.30;99.90;;;;;;1860411;75;21482;-78
2021/06/23 03:01:25;;;;;;;12.78;3.62;;;17.30;99.90;;;;;;1859333;75;21122;-75
2021/06/23 03:03:52;;;;;;;18.02;4.67;;;17.30;99.90;;;;;;1858708;75;21122;-77
2021/06/23 03:06:20;;;;;;;18.23;4.20;;;17.30;99.90;;;;;;1860293;75;21568;-78
2021/06/23 03:08:47;;;;;;;14.20;3.83;;;17.30;99.90;;;;;;1860401;75;21099;-76
2021/06/23 03:11:15;;;;;;;18.60;4.10;;;17.40;99.90;;;;;;1860411;75;21060;-79
2021/06/23 03:13:42;;;;;;;20.88;4.20;;;17.30;99.90;;;;;;1858994;75;21128;-80
2021/06/23 03:16:10;;;;;;;13.53;3.65;;;17.30;99.90;;;;;;1860511;75;21553;-78
2021/06/23 03:18:38;;;;;;;23.83;4.65;;;17.30;99.90;;;;;;1859094;75;21163;-77
2021/06/23 03:21:07;;;;;;;15.28;3.83;;;17.30;99.90;;;;;;1860724;76;21055;-78
2021/06/23 03:23:35;;;;;;;14.38;3.67;;;17.40;99.90;;;;;;1860270;75;21034;-77
2021/06/23 03:26:04;;;;;;;16.85;4.30;;;17.40;99.90;;;;;;1860047;77;21175;-77
2021/06/23 03:28:31;;;;;;;15.18;3.30;;;17.40;99.90;;;;;;1859738;75;21125;-78
2021/06/23 03:30:59;;;;;;;16.27;4.17;;;17.50;99.90;;;;;;1860557;75;21125;-76
2021/06/23 03:33:26;;;;;;;13.32;4.42;;;17.40;99.90;;;;;;1859267;75;21105;-75
2021/06/23 03:35:55;;;;;;;14.70;3.70;;;17.50;99.90;;;;;;1860590;76;21635;-78
2021/06/23 03:38:22;;;;;;;15.65;4.03;;;17.40;99.90;;;;;;1861611;75;21080;-78
2021/06/23 03:40:50;;;;;;;15.98;3.62;;;17.50;99.90;;;;;;1861488;76;21223;-76
2021/06/23 03:43:20;;;;;;;14.30;4.17;;;17.40;99.90;;;;;;1860081;75;21160;-78
2021/06/23 03:45:48;;;;;;;14.23;3.77;;;17.40;99.90;;;;;;1859764;75;21123;-78
2021/06/23 03:48:16;;;;;;;13.25;3.33;;;17.40;99.90;;;;;;1859486;77;21120;-77
2021/06/23 03:50:46;;;;;;;21.33;4.53;;;17.40;99.90;;;;;;1858791;75;21696;-78
2021/06/23 03:53:13;;;;;;;16.15;4.00;;;17.40;99.90;;;;;;1860417;75;21174;-76
2021/06/23 03:55:41;;;;;;;20.12;3.72;;;17.40;99.90;;;;;;1859895;75;21796;-76
2021/06/23 03:58:08;;;;;;;15.50;3.80;;;17.50;99.90;;;;;;1860747;77;21096;-76
2021/06/23 04:00:36;;;;;;;14.78;4.00;;;17.40;99.90;;;;;;1860538;75;21141;-78
2021/06/23 04:03:04;;;;;;;19.12;4.55;;;17.50;99.90;;;;;;1861250;75;21495;-77
2021/06/23 04:05:32;;;;;;;16.67;4.37;;;17.40;99.90;;;;;;1860510;77;21102;-80
2021/06/23 04:07:59;;;;;;;18.25;4.08;;;17.40;99.90;;;;;;1861489;76;21200;-76
2021/06/23 04:10:27;;;;;;;16.87;3.98;;;17.50;99.90;;;;;;1860664;76;22034;-77
2021/06/23 04:12:54;;;;;;;18.20;4.17;;;17.50;99.90;;;;;;1860540;76;21224;-78
2021/06/23 04:15:22;;;;;;;18.05;4.28;;;17.50;99.90;;;;;;1860068;75;21036;-77
2021/06/23 04:17:49;;;;;;;19.48;3.92;;;17.50;99.90;;;;;;1859183;76;21058;-76
2021/06/23 04:20:17;;;;;;;17.17;4.37;;;17.60;99.90;;;;;;1859476;75;21119;-76
2021/06/23 04:22:45;;;;;;;17.27;4.35;;;17.60;99.90;;;;;;1859369;77;22238;-74
2021/06/23 04:25:13;;;;;;;11.10;3.90;;;17.60;99.90;;;;;;1859108;75;21687;-76
2021/06/23 04:27:41;;;;;;;16.73;3.95;;;17.60;99.90;;;;;;1859710;76;21220;-75
2021/06/23 04:30:12;;;;;;;12.58;3.35;;;17.60;99.90;;;;;;1858478;75;21749;-76
2021/06/23 04:32:39;;;;;;;18.32;3.87;;;17.60;99.90;;;;;;1859207;75;21168;-76
2021/06/23 04:35:09;;;;;;;11.60;2.90;;;17.60;99.90;;;;;;1859849;75;21135;-75
2021/06/23 04:37:40;;;;;;;14.87;3.35;;;17.60;99.90;;;;;;1859814;76;21117;-77
2021/06/23 04:40:10;;;;;;;13.83;3.15;;;17.70;99.90;;;;;;1859845;75;21143;-77
2021/06/23 04:42:39;;;;;;;10.35;2.67;;;17.70;99.90;;;;;;1859818;75;21212;-77
2021/06/23 04:45:08;;;;;;;12.82;2.85;;;17.80;99.90;;;;;;1859511;75;21126;-76
2021/06/23 04:47:37;;;;;;;14.85;3.12;;;17.80;99.90;;;;;;1859368;75;21114;-77
2021/06/23 04:50:07;;;;;;;14.85;2.95;;;17.80;99.90;;;;;;1857416;75;21195;-77
2021/06/23 04:52:35;;;;;;;10.08;3.27;;;17.90;99.90;;;;;;1858489;75;21198;-77
2021/06/23 04:55:04;;;;;;;10.90;2.80;;;17.90;99.90;;;;;;1857388;75;21615;-78
2021/06/23 04:57:32;;;;;;;16.37;3.50;;;18.00;99.90;;;;;;1858564;75;21124;-78
2021/06/23 04:59:59;;;;;;;14.23;3.42;;;18.00;99.90;;;;;;1858266;75;21140;-77
2021/06/23 05:02:27;;;;;;;12.75;3.08;;;18.00;99.90;;;;;;1859076;75;21063;-77
2021/06/23 05:04:56;;;;;;;12.10;3.25;;;18.10;99.90;;;;;;1856621;75;21526;-77
2021/06/23 05:07:23;;;;;;;14.18;3.83;;;18.10;99.90;;;;;;1859357;75;21119;-77
2021/06/23 05:09:51;;;;;;;9.53;3.47;;;18.10;99.90;;;;;;1857760;75;21087;-77
2021/06/23 05:12:22;;;;;;;13.50;2.98;;;18.20;99.90;;;;;;1854516;75;21182;-77
2021/06/23 05:14:49;;;;;;;9.75;3.02;;;18.10;99.90;;;;;;1852356;75;21120;-78
2021/06/23 05:17:17;;;;;;;9.93;2.72;;;18.10;99.90;;;;;;1857806;75;21104;-76
2021/06/23 05:19:44;;;;;;;14.58;3.65;;;18.20;99.90;;;;;;1859438;75;21232;-76
2021/06/23 05:22:13;;;;;;;11.97;3.45;;;18.20;99.90;;;;;;1878387;73;21153;-76
2021/06/23 05:24:42;;;;;;;12.03;3.52;;;18.20;99.90;;;;;;1880763;76;21113;-76
2021/06/23 05:27:11;;;;;;;12.20;3.45;;;18.30;99.90;;;;;;1875668;76;21030;-76
2021/06/23 05:29:39;;;;;;;15.72;3.67;;;18.30;99.90;;;;;;1903862;75;21045;-76
2021/06/23 05:32:07;;;;;;;12.50;3.50;;;18.40;99.90;;;;;;1860283;76;21150;-75
2021/06/23 05:34:35;;;;;;;12.33;2.75;;;18.40;99.90;;;;;;1858877;76;21604;-76
2021/06/23 05:37:03;;;;;;;12.10;3.20;;;18.50;99.90;;;;;;1862309;76;21053;-76
2021/06/23 05:39:31;;;;;;;13.83;3.70;;;18.50;99.90;;;;;;1863876;76;21117;-77
2021/06/23 05:41:59;;;;;;;12.18;3.22;;;18.50;99.90;;;;;;1863898;75;21564;-76
2021/06/23 05:44:28;;;;;;;17.65;3.25;;;18.50;99.90;;;;;;1844807;75;21105;-74
2021/06/23 05:46:56;;;;;;;14.85;3.42;;;18.50;99.90;;;;;;1861311;75;21092;-74
2021/06/23 05:49:24;;;;;;;17.25;3.95;;;18.50;99.90;;;;;;1860084;75;21663;-76
2021/06/23 05:51:52;;;;;;;16.37;3.70;;;18.50;99.90;;;;;;1860338;75;21699;-76
2021/06/23 05:54:20;;;;;;;15.48;3.33;;;18.50;99.90;;;;;;1862853;76;21188;-75
2021/06/23 05:56:48;;;;;;;16.52;4.05;;;18.50;99.90;;;;;;1861177;77;21067;-76
2021/06/23 05:59:15;;;;;;;14.75;3.02;;;18.40;99.90;;;;;;1862483;76;21490;-76
2021/06/23 06:01:43;;;;;;;15.98;4.03;;;18.40;99.90;;;;;;1863649;75;21103;-76
2021/06/23 06:04:10;;;;;;;16.25;3.60;;;18.50;99.90;;;;;;1862503;76;21173;-76
2021/06/23 06:06:38;;;;;;;15.45;3.55;;;18.50;99.90;;;;;;1860934;75;21519;-76
2021/06/23 06:09:06;;;;;;;21.02;4.58;;;18.50;99.90;;;;;;1861322;77;21052;-76
2021/06/23 06:11:33;;;;;;;20.75;4.22;;;18.50;99.90;;;;;;1863071;75;21155;-71
2021/06/23 06:14:01;;;;;;;14.13;3.52;;;18.50;99.90;;;;;;1867385;76;21191;-72
2021/06/23 06:16:28;;;;;;;15.90;3.62;;;18.50;99.90;;;;;;1862412;76;21616;-72
2021/06/23 06:18:56;;;;;;;17.62;3.87;;;18.50;99.90;;;;;;1862361;75;21160;-72
2021/06/23 06:21:24;;;;;;;19.55;4.70;;;18.60;99.90;;;;;;1862163;75;21209;-74
2021/06/23 06:23:52;;;;;;;14.53;4.05;;;18.60;99.90;;;;;;1864788;76;21041;-76
2021/06/23 06:26:20;;;;;;;15.85;3.33;;;18.60;99.90;;;;;;1863275;75;21049;-73
2021/06/23 06:28:48;;;;;;;16.85;3.47;;;18.70;99.90;;;;;;1863415;77;21107;-74
2021/06/23 06:31:15;;;;;;;14.65;3.87;;;18.70;99.90;;;;;;1864486;75;21570;-73
2021/06/23 06:33:43;;;;;;;18.07;4.50;;;18.70;99.90;;;;;;1859194;76;21559;-72
2021/06/23 06:36:11;;;;;;;22.70;4.45;;;18.80;99.90;;;;;;1863427;76;21112;-71
2021/06/23 06:38:38;;;;;;;17.45;3.37;;;18.80;99.90;;;;;;1864123;75;21574;-72
2021/06/23 06:41:06;;;;;;;17.77;3.92;;;18.80;99.90;;;;;;1863362;75;21728;-72
2021/06/23 06:43:33;;;;;;;18.25;3.65;;;18.80;99.90;;;;;;1859697;76;21590;-71
2021/06/23 06:46:01;;;;;;;17.48;3.80;;;18.90;99.90;;;;;;1862929;75;21099;-71
2021/06/23 06:48:28;;;;;;;17.20;3.27;;;18.90;99.90;;;;;;1863105;77;21118;-71
2021/06/23 06:50:56;;;;;;;21.33;4.03;;;19.00;99.90;;;;;;1862885;76;21135;-72
2021/06/23 06:53:24;;;;;;;15.05;3.72;;;19.00;99.90;;;;;;1862978;75;21107;-72
2021/06/23 06:55:51;;;;;;;11.75;3.27;;;19.10;99.90;;;;;;1851891;75;21128;-71
2021/06/23 06:58:19;;;;;;;14.47;3.72;;;19.10;99.90;;;;;;1863756;76;21601;-73
2021/06/23 07:00:46;;;;;;;19.48;3.60;;;19.30;99.90;;;;;;1862043;76;21206;-76
2021/06/23 07:03:14;;;;;;;16.93;3.92;;;19.40;99.90;;;;;;1864081;76;21157;-72
2021/06/23 07:05:41;;;;;;;13.55;3.70;;;19.40;99.90;;;;;;1862415;75;21084;-73
2021/06/23 07:08:09;;;;;;;17.02;2.90;;;19.40;99.90;;;;;;1858185;76;21088;-72
2021/06/23 07:10:37;;;;;;;15.32;3.80;;;19.50;99.90;;;;;;1860442;75;21190;-72
2021/06/23 07:13:04;;;;;;;17.57;4.22;;;19.50;99.90;;;;;;1864700;75;21391;-71
2021/06/23 07:15:32;;;;;;;11.40;3.00;;;19.50;99.90;;;;;;1863404;77;21118;-72
2021/06/23 07:17:59;;;;;;;12.68;3.40;;;19.40;99.90;;;;;;1862889;77;21388;-71
2021/06/23 07:20:27;;;;;;;12.20;3.40;;;19.40;99.90;;;;;;1863062;76;21111;-72
2021/06/23 07:22:54;;;;;;;14.03;3.10;;;19.40;99.90;;;;;;1863088;75;21061;-71
2021/06/23 07:25:22;;;;;;;13.55;3.20;;;19.60;99.90;;;;;;1864975;75;21118;-71
2021/06/23 07:27:50;;;;;;;13.22;2.95;;;19.60;99.90;;;;;;1864180;75;21114;-72
2021/06/23 07:30:18;;;;;;;16.00;2.72;;;19.80;99.90;;;;;;1861657;75;21093;-70
2021/06/23 07:32:55;;;;;;;10.75;2.45;;;19.80;99.90;;;;;;1863421;75;21475;-71
2021/06/23 07:38:14;;;;;;;13.03;3.10;;;19.90;99.90;;;;;;1860046;75;21243;-72
2021/06/23 07:41:23;;;;;;;11.55;3.05;;;19.90;99.90;;;;;;1857343;76;21136;-70
2021/06/23 07:43:08;;;;;;;14.30;3.08;;;19.90;99.90;;;;;;1847690;75;21596;-71
2021/06/23 07:45:36;;;;;;;13.90;3.15;;;19.90;99.90;;;;;;1864020;76;21095;-70
2021/06/23 07:48:04;;;;;;;12.03;3.17;;;19.90;99.90;;;;;;1862812;76;21072;-70
2021/06/23 07:50:39;;;;;;;10.28;2.80;;;20.00;99.90;;;;;;1863426;76;21106;-70
2021/06/23 07:53:21;;;;;;;19.35;2.80;;;20.00;99.90;;;;;;1860297;75;21132;-71
2021/06/23 07:55:49;;;;;;;12.20;3.27;;;20.10;99.90;;;;;;1859606;77;21131;-72
2021/06/23 08:08:11;;;;;;;12.45;2.85;;;20.30;99.90;;;;;;1860260;76;21606;-72
2021/06/23 08:09:15;;;;;;;12.18;2.98;;;20.30;99.90;;;;;;1861472;76;21125;-72
2021/06/23 08:11:40;;;;;;;14.90;2.90;;;20.40;99.90;;;;;;1865682;76;21235;-71
2021/06/23 08:14:08;;;;;;;13.48;2.92;;;20.50;99.90;;;;;;1867743;76;21075;-72
2021/06/23 08:16:38;;;;;;;14.15;3.20;;;20.50;99.90;;;;;;1866371;75;21127;-72
2021/06/23 08:19:06;;;;;;;15.50;3.30;;;20.50;99.90;;;;;;1860896;75;21088;-72
2021/06/23 08:21:33;;;;;;;13.05;3.00;;;20.50;99.90;;;;;;1875903;74;21215;-72
2021/06/23 08:24:01;;;;;;;10.20;3.02;;;20.50;99.90;;;;;;1861516;77;21076;-72
2021/06/23 08:26:28;;;;;;;13.28;3.25;;;20.40;99.90;;;;;;1863091;75;21176;-72
2021/06/23 08:28:56;;;;;;;8.03;2.52;;;20.40;99.90;;;;;;1858644;77;21145;-72
2021/06/23 08:31:23;;;;;;;12.18;2.50;;;20.40;99.90;;;;;;1857879;75;21126;-72
2021/06/23 08:33:53;;;;;;;11.75;2.60;;;20.40;99.90;;;;;;1858557;77;21550;-71
2021/06/23 08:36:20;;;;;;;11.28;2.60;;;20.40;99.90;;;;;;1863376;76;21123;-72
2021/06/23 08:38:47;;;;;;;9.75;3.02;;;20.40;99.90;;;;;;1859798;76;21197;-72
2021/06/23 08:41:15;;;;;;;13.13;2.67;;;20.40;99.90;;;;;;1861339;76;21569;-72
2021/06/23 08:43:43;;;;;;;11.83;3.17;;;20.50;99.90;;;;;;1863190;77;21677;-70
2021/06/23 08:46:10;;;;;;;14.93;3.02;;;20.50;99.90;;;;;;1864025;77;21107;-72
2021/06/23 08:48:39;;;;;;;11.57;2.60;;;20.50;99.90;;;;;;1866210;75;21402;-73
2021/06/23 08:51:08;;;;;;;8.95;2.52;;;20.50;99.90;;;;;;1863905;75;21134;-73
2021/06/23 08:53:35;;;;;;;11.18;2.50;;;20.50;99.90;;;;;;1859285;76;21637;-73
2021/06/23 08:56:05;;;;;;;13.68;3.12;;;20.50;99.90;;;;;;1859513;76;21562;-73
2021/06/23 08:58:34;;;;;;;10.23;2.80;;;20.50;99.90;;;;;;1857548;75;21158;-71
2021/06/23 09:01:02;;;;;;;11.90;3.00;;;20.60;99.90;;;;;;1859126;75;21139;-71
2021/06/23 09:03:29;;;;;;;15.20;2.98;;;20.60;99.90;;;;;;1861237;76;21144;-73
2021/06/23 09:05:59;;;;;;;16.97;3.15;;;20.60;99.90;;;;;;1860335;75;21362;-71
2021/06/23 09:08:33;;;;;;;14.28;3.17;;;20.60;99.90;;;;;;1864532;75;21270;-72
2021/06/23 09:11:02;;;;;;;11.55;2.98;;;20.60;99.90;;;;;;1858942;76;21073;-72
2021/06/23 09:13:30;;;;;;;14.10;3.58;;;20.60;99.90;;;;;;1861340;75;21106;-72
2021/06/23 09:16:00;;;;;;;13.40;2.98;;;20.60;99.90;;;;;;1863711;77;21157;-71
2021/06/23 09:18:34;;;;;;;11.78;2.98;;;20.60;99.90;;;;;;1860443;75;21147;-72
2021/06/23 09:21:05;;;;;;;11.75;3.40;;;20.60;99.90;;;;;;1860920;75;21221;-71
2021/06/23 09:23:48;;;;;;;12.28;2.98;;;20.60;99.90;;;;;;1861355;75;21216;-71
2021/06/23 09:26:21;;;;;;;12.60;2.95;;;20.70;99.90;;;;;;1862228;75;21114;-71
2021/06/23 09:29:07;;;;;;;16.97;3.50;;;20.70;99.90;;;;;;1861247;75;21180;-72
2021/06/23 09:31:54;;;;;;;12.50;2.70;;;20.70;99.90;;;;;;1846867;76;21139;-72
2021/06/23 09:34:38;;;;;;;13.30;3.50;;;20.70;99.90;;;;;;1863291;75;21184;-71
2021/06/23 09:37:28;;;;;;;11.25;2.40;;;20.70;99.90;;;;;;1863257;77;21167;-70
2021/06/23 09:40:13;;;;;;;12.80;3.30;;;20.80;99.90;;;;;;1863824;76;21083;-70
2021/06/23 09:42:43;;;;;;;11.25;3.00;;;20.90;99.90;;;;;;1862803;76;21217;-72
2021/06/23 09:45:13;;;;;;;13.48;3.10;;;20.90;99.90;;;;;;1863511;77;21525;-73
2021/06/23 09:47:41;;;;;;;16.52;2.92;;;20.90;99.90;;;;;;1864155;76;21071;-73
2021/06/23 09:50:11;;;;;;;13.98;3.20;;;21.00;99.90;;;;;;1862733;77;21103;-73
2021/06/23 09:52:45;;;;;;;13.30;3.22;;;21.10;99.90;;;;;;1860675;77;21228;-72
2021/06/23 09:55:11;;;;;;;12.00;3.05;;;21.20;99.90;;;;;;1859953;76;21119;-70
2021/06/23 09:57:40;;;;;;;14.73;2.80;;;21.20;99.90;;;;;;1861942;76;21632;-72
2021/06/23 10:00:10;;;;;;;10.93;2.67;;;21.30;99.90;;;;;;1857897;77;21093;-72
2021/06/23 10:02:38;;;;;;;18.27;3.72;;;21.40;99.90;;;;;;1860978;76;21115;-71
2021/06/23 10:05:21;;;;;;;15.28;3.25;;;21.50;99.90;;;;;;1863747;76;21620;-71
2021/06/23 10:07:48;;;;;;;;;;;21.50;99.90;;;;;;1865881;76;21593;-69
2021/06/23 10:10:18;;;;;;;14.85;2.98;;;21.60;99.90;;;;;;1862886;76;20188;-72
2021/06/23 10:12:52;;;;;;;15.45;3.35;;;21.60;99.90;;;;;;1864386;77;21369;-71
2021/06/23 10:15:20;;;;;;;11.73;3.30;;;21.80;99.90;;;;;;1864592;76;21069;-70
2021/06/23 10:17:48;;;;;;;14.68;3.37;;;21.90;99.90;;;;;;1863969;75;21056;-69
2021/06/23 10:20:17;;;;;;;17.27;3.40;;;22.00;99.90;;;;;;1858785;76;21173;-70
2021/06/23 10:22:46;;;;;;;15.45;3.58;;;22.10;99.90;;;;;;1867914;76;21093;-70
2021/06/23 10:25:15;;;;;;;10.75;3.27;;;22.20;99.90;;;;;;1859172;76;21401;-70
2021/06/23 10:27:45;;;;;;;15.20;3.45;;;22.30;99.90;;;;;;1859818;75;21487;-70
2021/06/23 10:30:14;;;;;;;12.07;3.22;;;22.30;99.90;;;;;;1857268;75;21174;-70
2021/06/23 10:32:43;;;;;;;18.50;3.60;;;22.30;99.90;;;;;;1858186;75;21198;-69
2021/06/23 10:35:13;;;;;;;12.37;3.20;;;22.30;99.90;;;;;;1857998;76;21158;-70
2021/06/23 10:37:42;;;;;;;14.47;2.85;;;22.40;99.90;;;;;;1861797;77;21068;-70
2021/06/23 10:40:12;;;;;;;14.40;2.85;;;22.40;99.90;;;;;;1863978;76;21184;-72
2021/06/23 10:42:40;;;;;;;9.50;2.80;;;22.40;99.90;;;;;;1863185;76;22226;-71
2021/06/23 10:45:09;;;;;;;10.55;2.77;;;22.50;99.90;;;;;;1863278;77;21483;-71
2021/06/23 10:47:49;;;;;;;13.22;3.33;;;22.50;99.90;;;;;;1862700;76;21115;-71
2021/06/23 10:50:20;;;;;;;14.47;3.17;;;22.70;99.90;;;;;;1861208;75;21679;-70
2021/06/23 10:52:48;;;;;;;12.50;2.70;;;22.80;99.90;;;;;;1862776;77;21055;-71
2021/06/23 10:55:24;;;;;;;13.62;3.00;;;22.90;99.00;;;;;;1862472;76;21150;-71
2021/06/23 10:58:06;;;;;;;11.88;3.40;;;22.90;99.10;;;;;;1862782;76;21048;-77
2021/06/23 11:00:34;;;;;;;12.05;2.70;;;22.90;99.20;;;;;;1859406;76;21021;-77
2021/06/23 11:03:05;;;;;;;9.78;2.83;;;23.00;98.90;;;;;;1866315;76;21029;-79
2021/06/23 11:05:41;;;;;;;11.68;3.10;;;23.00;99.90;;;;;;1865904;75;21399;-79
2021/06/23 11:08:32;;;;;;;11.22;3.10;;;23.00;98.80;;;;;;1860979;76;21139;-80
2021/06/23 11:11:03;;;;;;;13.88;3.20;;;23.00;99.30;;;;;;1866957;75;21281;-81
2021/06/23 11:13:36;;;;;;;12.90;3.65;;;23.00;99.90;;;;;;1864267;76;21224;-79
2021/06/23 11:16:05;;;;;;;13.43;2.90;;;23.00;99.50;;;;;;1863565;76;21142;-80
2021/06/23 11:18:38;;;;;;;10.95;2.70;;;23.00;99.50;;;;;;1866137;76;21165;-80
2021/06/23 11:21:17;;;;;;;14.18;2.83;;;23.10;98.80;;;;;;1863559;75;22299;-77
2021/06/23 11:24:00;;;;;;;13.50;3.30;;;23.10;98.60;;;;;;1834968;76;21562;-78
2021/06/23 11:26:30;;;;;;;14.85;3.10;;;23.20;99.30;;;;;;1857014;76;21172;-79
2021/06/23 11:29:13;;;;;;;11.45;3.00;;;23.20;99.20;;;;;;1902226;74;21111;-79
2021/06/23 11:31:46;;;;;;;10.88;2.70;;;23.20;98.80;;;;;;1852980;77;21212;-78
2021/06/23 11:34:34;;;;;;;12.50;2.62;;;23.30;99.70;;;;;;1904930;74;21109;-78
2021/06/23 11:37:01;;;;;;;11.45;3.35;;;23.40;99.90;;;;;;1869115;74;21619;-82
2021/06/23 11:39:29;;;;;;;8.10;2.70;;;23.60;99.90;;;;;;1853578;76;21622;-80
2021/06/23 11:41:56;;;;;;;13.03;2.80;;;23.70;98.70;;;;;;1850698;76;21120;-79
2021/06/23 11:44:24;;;;;;;11.60;3.12;;;23.70;98.30;;;;;;1870352;74;21178;-80
2021/06/23 11:46:54;;;;;;;13.20;3.20;;;23.80;97.80;;;;;;1875315;75;21631;-79
2021/06/23 11:49:20;;;;;;;18.20;3.35;;;23.80;98.90;;;;;;1882190;76;21171;-79
2021/06/23 11:51:48;;;;;;;9.23;2.45;;;23.80;98.50;;;;;;1866652;76;21129;-79
2021/06/23 11:54:16;;;;;;;11.48;2.80;;;23.80;99.50;;;;;;1883155;74;21071;-78
2021/06/23 11:56:43;;;;;;;15.35;3.58;;;23.80;98.20;;;;;;1889255;74;21090;-76
2021/06/23 11:59:11;;;;;;;17.48;3.02;;;23.80;98.00;;;;;;1883618;74;21645;-77
2021/06/23 12:01:38;;;;;;;12.00;2.85;;;23.80;97.40;;;;;;1886139;76;21048;-80
2021/06/23 12:04:06;;;;;;;14.35;2.70;;;23.70;97.30;;;;;;1884000;75;21091;-80
2021/06/23 12:06:34;;;;;;;12.25;3.52;;;23.70;97.30;;;;;;1882281;74;21047;-79
2021/06/23 12:09:01;;;;;;;9.65;2.77;;;23.60;96.30;;;;;;1871064;74;21485;-80
2021/06/23 12:11:29;;;;;;;16.73;3.60;;;23.60;97.00;;;;;;1886797;74;21172;-80
2021/06/23 12:13:56;;;;;;;10.93;2.67;;;23.50;97.30;;;;;;1881324;74;21207;-78
2021/06/23 12:16:24;;;;;;;11.33;3.05;;;23.50;97.60;;;;;;1885939;74;21051;-80
2021/06/23 12:18:51;;;;;;;10.68;3.02;;;23.50;97.30;;;;;;1887940;74;21106;-81
2021/06/23 12:21:19;;;;;;;9.78;3.17;;;23.50;97.20;;;;;;1884055;74;21075;-81
2021/06/23 12:23:46;;;;;;;9.75;3.12;;;23.50;97.70;;;;;;1859061;75;21134;-81
2021/06/23 12:26:14;;;;;;;8.33;2.45;;;23.40;97.30;;;;;;1864355;76;21096;-79
2021/06/23 12:28:42;;;;;;;9.90;2.70;;;23.30;97.90;;;;;;1878216;74;21124;-80
2021/06/23 12:31:09;;;;;;;12.45;2.95;;;23.30;98.20;;;;;;1866708;75;21143;-79
2021/06/23 12:33:37;;;;;;;12.28;2.95;;;23.30;97.80;;;;;;1882706;75;21510;-79
2021/06/23 12:36:04;;;;;;;11.90;3.00;;;23.30;97.60;;;;;;1866061;75;21211;-79
2021/06/23 12:38:33;;;;;;;10.00;3.40;;;23.20;97.40;;;;;;1875975;74;21230;-79
2021/06/23 12:41:01;;;;;;;12.05;3.20;;;23.20;97.70;;;;;;1889479;74;21134;-80
2021/06/23 12:43:28;;;;;;;10.10;2.70;;;23.20;96.90;;;;;;1885934;74;21086;-78
2021/06/23 12:45:55;;;;;;;15.40;3.45;;;23.10;97.20;;;;;;1885059;76;21162;-79
2021/06/23 12:48:23;;;;;;;13.35;3.40;;;23.20;97.20;;;;;;1858864;76;21124;-82
2021/06/23 12:50:51;;;;;;;15.50;3.20;;;23.20;99.70;;;;;;1859419;76;21591;-79
2021/06/23 12:53:19;;;;;;;18.12;3.65;;;23.30;98.20;;;;;;1861491;74;21156;-85
2021/06/23 12:55:46;;;;;;;11.57;3.42;;;23.30;97.80;;;;;;1857757;76;21499;-86
2021/06/23 12:58:14;;;;;;;10.20;3.12;;;23.40;97.70;;;;;;1888455;76;21071;-84
2021/06/23 13:00:43;;;;;;;11.93;3.00;;;23.40;98.20;;;;;;1882422;74;21073;-85